sensor_id;sensor_type;location;lat;lon;timestamp;P1;durP1;ratioP1;P2;durP2;ratioP2
4646;SDS011;2336;47.822;7.564;2023-12-14T00:00:39;1.20;;;1.20;;
4646;SDS011;2336;47.822;7.564;2023-12-14T00:03:06;1.30;;;1.30;;
4646;SDS011;2336;47.822;7.564;2023-12-14T00:05:32;1.80;;;1.80;;
4646;SDS011;2336;47.822;7.564;2023-12-14T00:08:01;1.40;;;1.40;;
4646;SDS011;2336;47.822;7.564;2023-12-14T00:10:28;1.70;;;1.70;;
4646;SDS011;2336;47.822;7.564;2023-12-14T00:12:55;1.60;;;1.50;;
4646;SDS011;2336;47.822;7.564;2023-12-14T00:15:22;1.53;;;1.30;;
4646;SDS011;2336;47.822;7.564;2023-12-14T00:17:49;1.30;;;1.20;;
4646;SDS011;2336;47.822;7.564;2023-12-14T00:20:15;1.37;;;1.37;;
4646;SDS011;2336;47.822;7.564;2023-12-14T00:22:42;1.80;;;1.53;;
4646;SDS011;2336;47.822;7.564;2023-12-14T00:25:10;1.40;;;1.33;;
4646;SDS011;2336;47.822;7.564;2023-12-14T00:27:37;1.80;;;1.70;;
4646;SDS011;2336;47.822;7.564;2023-12-14T00:30:04;1.50;;;1.50;;
4646;SDS011;2336;47.822;7.564;2023-12-14T00:32:32;1.97;;;1.87;;
4646;SDS011;2336;47.822;7.564;2023-12-14T00:34:59;1.10;;;1.10;;
4646;SDS011;2336;47.822;7.564;2023-12-14T00:37:26;1.50;;;1.50;;
4646;SDS011;2336;47.822;7.564;2023-12-14T00:39:52;1.20;;;1.20;;
4646;SDS011;2336;47.822;7.564;2023-12-14T00:42:21;1.50;;;1.40;;
4646;SDS011;2336;47.822;7.564;2023-12-14T00:44:48;2.40;;;1.80;;
4646;SDS011;2336;47.822;7.564;2023-12-14T00:47:14;2.10;;;2.00;;
4646;SDS011;2336;47.822;7.564;2023-12-14T00:49:41;1.60;;;1.53;;
4646;SDS011;2336;47.822;7.564;2023-12-14T00:52:08;1.50;;;1.50;;
4646;SDS011;2336;47.822;7.564;2023-12-14T00:54:35;1.37;;;1.27;;
4646;SDS011;2336;47.822;7.564;2023-12-14T00:57:01;1.60;;;1.60;;
4646;SDS011;2336;47.822;7.564;2023-12-14T00:59:30;1.40;;;1.37;;
4646;SDS011;2336;47.822;7.564;2023-12-14T01:01:57;1.90;;;1.50;;
4646;SDS011;2336;47.822;7.564;2023-12-14T01:04:23;1.40;;;1.30;;
4646;SDS011;2336;47.822;7.564;2023-12-14T01:06:50;1.77;;;1.67;;
4646;SDS011;2336;47.822;7.564;2023-12-14T01:09:17;6.67;;;1.60;;
4646;SDS011;2336;47.822;7.564;2023-12-14T01:11:44;1.57;;;1.57;;
4646;SDS011;2336;47.822;7.564;2023-12-14T01:14:10;1.57;;;1.50;;
4646;SDS011;2336;47.822;7.564;2023-12-14T01:16:39;2.47;;;1.43;;
4646;SDS011;2336;47.822;7.564;2023-12-14T01:19:05;1.60;;;1.60;;
4646;SDS011;2336;47.822;7.564;2023-12-14T01:21:32;1.77;;;1.67;;
4646;SDS011;2336;47.822;7.564;2023-12-14T01:23:59;2.30;;;2.20;;
4646;SDS011;2336;47.822;7.564;2023-12-14T01:26:26;2.80;;;2.53;;
4646;SDS011;2336;47.822;7.564;2023-12-14T01:28:53;2.00;;;1.93;;
4646;SDS011;2336;47.822;7.564;2023-12-14T01:31:20;2.10;;;2.00;;
4646;SDS011;2336;47.822;7.564;2023-12-14T01:33:49;2.17;;;2.07;;
4646;SDS011;2336;47.822;7.564;2023-12-14T01:36:19;1.90;;;1.80;;
4646;SDS011;2336;47.822;7.564;2023-12-14T01:38:47;2.20;;;2.00;;
4646;SDS011;2336;47.822;7.564;2023-12-14T01:41:14;2.33;;;2.23;;
4646;SDS011;2336;47.822;7.564;2023-12-14T01:43:41;1.77;;;1.77;;
4646;SDS011;2336;47.822;7.564;2023-12-14T01:46:08;2.20;;;2.10;;
4646;SDS011;2336;47.822;7.564;2023-12-14T01:48:35;2.50;;;2.40;;
4646;SDS011;2336;47.822;7.564;2023-12-14T01:51:03;3.10;;;2.97;;
4646;SDS011;2336;47.822;7.564;2023-12-14T01:53:30;3.17;;;3.00;;
4646;SDS011;2336;47.822;7.564;2023-12-14T01:55:57;3.60;;;3.30;;
4646;SDS011;2336;47.822;7.564;2023-12-14T01:58:24;3.17;;;3.00;;
4646;SDS011;2336;47.822;7.564;2023-12-14T02:00:52;3.50;;;3.30;;
4646;SDS011;2336;47.822;7.564;2023-12-14T02:03:26;2.93;;;2.73;;
4646;SDS011;2336;47.822;7.564;2023-12-14T02:05:53;2.50;;;2.30;;
4646;SDS011;2336;47.822;7.564;2023-12-14T02:08:21;2.30;;;1.93;;
4646;SDS011;2336;47.822;7.564;2023-12-14T02:10:48;1.67;;;1.67;;
4646;SDS011;2336;47.822;7.564;2023-12-14T02:13:15;1.63;;;1.63;;
4646;SDS011;2336;47.822;7.564;2023-12-14T02:15:42;2.77;;;2.63;;
4646;SDS011;2336;47.822;7.564;2023-12-14T02:18:08;4.63;;;4.13;;
4646;SDS011;2336;47.822;7.564;2023-12-14T02:20:35;2.57;;;2.47;;
4646;SDS011;2336;47.822;7.564;2023-12-14T02:23:03;2.10;;;2.00;;
4646;SDS011;2336;47.822;7.564;2023-12-14T02:25:30;2.50;;;2.30;;
4646;SDS011;2336;47.822;7.564;2023-12-14T02:27:57;2.07;;;2.07;;
4646;SDS011;2336;47.822;7.564;2023-12-14T02:30:23;2.37;;;2.27;;
4646;SDS011;2336;47.822;7.564;2023-12-14T02:32:50;2.13;;;2.03;;
4646;SDS011;2336;47.822;7.564;2023-12-14T02:35:17;1.77;;;1.67;;
4646;SDS011;2336;47.822;7.564;2023-12-14T02:37:44;2.27;;;2.07;;
4646;SDS011;2336;47.822;7.564;2023-12-14T02:40:12;1.87;;;1.83;;
4646;SDS011;2336;47.822;7.564;2023-12-14T02:42:39;1.60;;;1.50;;
4646;SDS011;2336;47.822;7.564;2023-12-14T02:45:06;1.40;;;1.40;;
4646;SDS011;2336;47.822;7.564;2023-12-14T02:47:34;2.27;;;2.13;;
4646;SDS011;2336;47.822;7.564;2023-12-14T02:50:01;2.43;;;1.70;;
4646;SDS011;2336;47.822;7.564;2023-12-14T02:52:27;1.77;;;1.73;;
4646;SDS011;2336;47.822;7.564;2023-12-14T02:54:54;1.80;;;1.70;;
4646;SDS011;2336;47.822;7.564;2023-12-14T02:57:22;1.93;;;1.90;;
4646;SDS011;2336;47.822;7.564;2023-12-14T02:59:49;1.57;;;1.47;;
4646;SDS011;2336;47.822;7.564;2023-12-14T03:02:16;1.77;;;1.67;;
4646;SDS011;2336;47.822;7.564;2023-12-14T03:04:42;1.80;;;1.70;;
4646;SDS011;2336;47.822;7.564;2023-12-14T03:07:09;1.60;;;1.50;;
4646;SDS011;2336;47.822;7.564;2023-12-14T03:09:38;3.10;;;1.70;;
4646;SDS011;2336;47.822;7.564;2023-12-14T03:12:06;1.70;;;1.70;;
4646;SDS011;2336;47.822;7.564;2023-12-14T03:14:34;2.03;;;2.00;;
4646;SDS011;2336;47.822;7.564;2023-12-14T03:17:01;1.50;;;1.50;;
4646;SDS011;2336;47.822;7.564;2023-12-14T03:19:28;1.70;;;1.60;;
4646;SDS011;2336;47.822;7.564;2023-12-14T03:21:55;2.20;;;1.80;;
4646;SDS011;2336;47.822;7.564;2023-12-14T03:24:21;2.20;;;1.67;;
4646;SDS011;2336;47.822;7.564;2023-12-14T03:26:48;1.70;;;1.70;;
4646;SDS011;2336;47.822;7.564;2023-12-14T03:29:16;1.70;;;1.60;;
4646;SDS011;2336;47.822;7.564;2023-12-14T03:31:44;1.97;;;1.87;;
4646;SDS011;2336;47.822;7.564;2023-12-14T03:34:11;2.83;;;2.63;;
4646;SDS011;2336;47.822;7.564;2023-12-14T03:36:38;2.07;;;1.97;;
4646;SDS011;2336;47.822;7.564;2023-12-14T03:39:05;2.20;;;2.10;;
4646;SDS011;2336;47.822;7.564;2023-12-14T03:41:32;2.00;;;1.90;;
4646;SDS011;2336;47.822;7.564;2023-12-14T03:43:59;2.13;;;2.00;;
4646;SDS011;2336;47.822;7.564;2023-12-14T03:46:25;2.27;;;2.17;;
4646;SDS011;2336;47.822;7.564;2023-12-14T03:48:53;27.90;;;21.00;;
4646;SDS011;2336;47.822;7.564;2023-12-14T03:51:20;9.00;;;8.20;;
4646;SDS011;2336;47.822;7.564;2023-12-14T03:53:47;13.37;;;12.23;;
4646;SDS011;2336;47.822;7.564;2023-12-14T03:56:14;10.43;;;9.60;;
4646;SDS011;2336;47.822;7.564;2023-12-14T03:58:41;6.73;;;6.33;;
4646;SDS011;2336;47.822;7.564;2023-12-14T04:01:07;4.40;;;4.00;;
4646;SDS011;2336;47.822;7.564;2023-12-14T04:03:41;4.60;;;4.30;;
4646;SDS011;2336;47.822;7.564;2023-12-14T04:06:09;3.87;;;3.67;;
4646;SDS011;2336;47.822;7.564;2023-12-14T04:08:36;5.17;;;4.77;;
4646;SDS011;2336;47.822;7.564;2023-12-14T04:11:04;5.23;;;4.40;;
4646;SDS011;2336;47.822;7.564;2023-12-14T04:13:31;6.40;;;5.70;;
4646;SDS011;2336;47.822;7.564;2023-12-14T04:15:58;8.87;;;7.80;;
4646;SDS011;2336;47.822;7.564;2023-12-14T04:18:25;13.07;;;10.93;;
4646;SDS011;2336;47.822;7.564;2023-12-14T04:20:52;14.47;;;11.23;;
4646;SDS011;2336;47.822;7.564;2023-12-14T04:23:21;16.90;;;13.77;;
4646;SDS011;2336;47.822;7.564;2023-12-14T04:25:47;7.10;;;6.40;;
4646;SDS011;2336;47.822;7.564;2023-12-14T04:28:14;4.60;;;4.30;;
4646;SDS011;2336;47.822;7.564;2023-12-14T04:30:41;3.58;;;3.38;;
4646;SDS011;2336;47.822;7.564;2023-12-14T04:33:08;3.37;;;3.27;;
4646;SDS011;2336;47.822;7.564;2023-12-14T04:35:35;2.97;;;2.87;;
4646;SDS011;2336;47.822;7.564;2023-12-14T04:38:02;3.33;;;3.13;;
4646;SDS011;2336;47.822;7.564;2023-12-14T04:40:31;3.23;;;3.13;;
4646;SDS011;2336;47.822;7.564;2023-12-14T04:42:58;3.10;;;3.00;;
4646;SDS011;2336;47.822;7.564;2023-12-14T04:45:25;4.00;;;3.80;;
4646;SDS011;2336;47.822;7.564;2023-12-14T04:47:53;3.77;;;3.47;;
4646;SDS011;2336;47.822;7.564;2023-12-14T04:50:20;3.00;;;2.90;;
4646;SDS011;2336;47.822;7.564;2023-12-14T04:52:47;3.63;;;3.43;;
4646;SDS011;2336;47.822;7.564;2023-12-14T04:55:15;3.50;;;3.30;;
4646;SDS011;2336;47.822;7.564;2023-12-14T04:57:43;3.00;;;2.90;;
4646;SDS011;2336;47.822;7.564;2023-12-14T05:00:12;3.50;;;3.20;;
4646;SDS011;2336;47.822;7.564;2023-12-14T05:02:39;2.90;;;2.80;;
4646;SDS011;2336;47.822;7.564;2023-12-14T05:05:06;3.20;;;3.00;;
4646;SDS011;2336;47.822;7.564;2023-12-14T05:07:33;3.53;;;3.33;;
4646;SDS011;2336;47.822;7.564;2023-12-14T05:10:00;3.40;;;3.20;;
4646;SDS011;2336;47.822;7.564;2023-12-14T05:12:27;3.13;;;2.97;;
4646;SDS011;2336;47.822;7.564;2023-12-14T05:14:55;3.10;;;2.90;;
4646;SDS011;2336;47.822;7.564;2023-12-14T05:17:22;2.73;;;2.63;;
4646;SDS011;2336;47.822;7.564;2023-12-14T05:19:49;2.83;;;2.67;;
4646;SDS011;2336;47.822;7.564;2023-12-14T05:22:16;2.70;;;2.60;;
4646;SDS011;2336;47.822;7.564;2023-12-14T05:24:44;2.83;;;2.70;;
4646;SDS011;2336;47.822;7.564;2023-12-14T05:27:12;2.50;;;2.40;;
4646;SDS011;2336;47.822;7.564;2023-12-14T05:29:40;2.63;;;2.53;;
4646;SDS011;2336;47.822;7.564;2023-12-14T05:32:08;2.77;;;2.53;;
4646;SDS011;2336;47.822;7.564;2023-12-14T05:34:35;3.50;;;3.20;;
4646;SDS011;2336;47.822;7.564;2023-12-14T05:37:01;4.47;;;4.27;;
4646;SDS011;2336;47.822;7.564;2023-12-14T05:39:28;2.97;;;2.87;;
4646;SDS011;2336;47.822;7.564;2023-12-14T05:41:55;3.10;;;2.80;;
4646;SDS011;2336;47.822;7.564;2023-12-14T05:44:22;3.57;;;3.43;;
4646;SDS011;2336;47.822;7.564;2023-12-14T05:46:50;2.50;;;2.40;;
4646;SDS011;2336;47.822;7.564;2023-12-14T05:49:18;3.27;;;3.07;;
4646;SDS011;2336;47.822;7.564;2023-12-14T05:51:45;4.60;;;4.30;;
4646;SDS011;2336;47.822;7.564;2023-12-14T05:54:12;5.73;;;2.40;;
4646;SDS011;2336;47.822;7.564;2023-12-14T05:56:38;3.43;;;3.33;;
4646;SDS011;2336;47.822;7.564;2023-12-14T05:59:06;4.70;;;2.53;;
4646;SDS011;2336;47.822;7.564;2023-12-14T06:01:32;2.90;;;2.80;;
4646;SDS011;2336;47.822;7.564;2023-12-14T06:03:59;2.93;;;2.83;;
4646;SDS011;2336;47.822;7.564;2023-12-14T06:06:28;2.57;;;2.47;;
4646;SDS011;2336;47.822;7.564;2023-12-14T06:08:55;2.43;;;2.33;;
4646;SDS011;2336;47.822;7.564;2023-12-14T06:11:22;2.30;;;2.10;;
4646;SDS011;2336;47.822;7.564;2023-12-14T06:13:48;2.00;;;1.90;;
4646;SDS011;2336;47.822;7.564;2023-12-14T06:16:15;2.47;;;2.30;;
4646;SDS011;2336;47.822;7.564;2023-12-14T06:18:42;3.13;;;2.17;;
4646;SDS011;2336;47.822;7.564;2023-12-14T06:21:10;2.93;;;2.03;;
4646;SDS011;2336;47.822;7.564;2023-12-14T06:23:40;2.23;;;2.10;;
4646;SDS011;2336;47.822;7.564;2023-12-14T06:26:07;2.40;;;2.20;;
4646;SDS011;2336;47.822;7.564;2023-12-14T06:28:34;2.00;;;1.90;;
4646;SDS011;2336;47.822;7.564;2023-12-14T06:31:00;1.90;;;1.80;;
4646;SDS011;2336;47.822;7.564;2023-12-14T06:33:27;1.80;;;1.70;;
4646;SDS011;2336;47.822;7.564;2023-12-14T06:35:54;1.80;;;1.70;;
4646;SDS011;2336;47.822;7.564;2023-12-14T06:38:21;1.53;;;1.53;;
4646;SDS011;2336;47.822;7.564;2023-12-14T06:40:49;1.70;;;1.70;;
4646;SDS011;2336;47.822;7.564;2023-12-14T06:43:16;1.90;;;1.90;;
4646;SDS011;2336;47.822;7.564;2023-12-14T06:45:43;2.33;;;2.20;;
4646;SDS011;2336;47.822;7.564;2023-12-14T06:48:09;2.00;;;1.90;;
4646;SDS011;2336;47.822;7.564;2023-12-14T06:50:36;2.70;;;2.50;;
4646;SDS011;2336;47.822;7.564;2023-12-14T06:53:04;1.73;;;1.63;;
4646;SDS011;2336;47.822;7.564;2023-12-14T06:55:30;1.67;;;1.57;;
4646;SDS011;2336;47.822;7.564;2023-12-14T06:57:59;2.73;;;2.00;;
4646;SDS011;2336;47.822;7.564;2023-12-14T07:00:25;2.00;;;2.00;;
4646;SDS011;2336;47.822;7.564;2023-12-14T07:02:54;1.70;;;1.70;;
4646;SDS011;2336;47.822;7.564;2023-12-14T07:05:21;2.90;;;2.80;;
4646;SDS011;2336;47.822;7.564;2023-12-14T07:07:48;2.73;;;2.63;;
4646;SDS011;2336;47.822;7.564;2023-12-14T07:10:14;2.20;;;2.10;;
4646;SDS011;2336;47.822;7.564;2023-12-14T07:12:41;5.07;;;3.17;;
4646;SDS011;2336;47.822;7.564;2023-12-14T07:15:09;3.20;;;2.97;;
4646;SDS011;2336;47.822;7.564;2023-12-14T07:17:36;3.27;;;3.17;;
4646;SDS011;2336;47.822;7.564;2023-12-14T07:20:03;3.13;;;2.80;;
4646;SDS011;2336;47.822;7.564;2023-12-14T07:22:31;3.03;;;2.93;;
4646;SDS011;2336;47.822;7.564;2023-12-14T07:24:58;3.07;;;2.97;;
4646;SDS011;2336;47.822;7.564;2023-12-14T07:27:25;3.27;;;3.13;;
4646;SDS011;2336;47.822;7.564;2023-12-14T07:29:52;3.33;;;3.20;;
4646;SDS011;2336;47.822;7.564;2023-12-14T07:32:20;5.30;;;4.80;;
4646;SDS011;2336;47.822;7.564;2023-12-14T07:34:47;8.57;;;7.73;;
4646;SDS011;2336;47.822;7.564;2023-12-14T07:37:14;10.83;;;9.83;;
4646;SDS011;2336;47.822;7.564;2023-12-14T07:39:40;9.60;;;8.70;;
4646;SDS011;2336;47.822;7.564;2023-12-14T07:42:07;9.63;;;8.67;;
4646;SDS011;2336;47.822;7.564;2023-12-14T07:44:34;20.67;;;17.60;;
4646;SDS011;2336;47.822;7.564;2023-12-14T07:47:01;12.40;;;11.03;;
4646;SDS011;2336;47.822;7.564;2023-12-14T07:49:30;12.40;;;10.93;;
4646;SDS011;2336;47.822;7.564;2023-12-14T07:51:56;11.73;;;10.50;;
4646;SDS011;2336;47.822;7.564;2023-12-14T07:54:23;9.87;;;8.90;;
4646;SDS011;2336;47.822;7.564;2023-12-14T07:56:52;8.40;;;7.50;;
4646;SDS011;2336;47.822;7.564;2023-12-14T07:59:18;7.63;;;7.00;;
4646;SDS011;2336;47.822;7.564;2023-12-14T08:01:45;7.23;;;6.73;;
4646;SDS011;2336;47.822;7.564;2023-12-14T08:04:12;6.80;;;6.20;;
4646;SDS011;2336;47.822;7.564;2023-12-14T08:06:41;7.03;;;6.43;;
4646;SDS011;2336;47.822;7.564;2023-12-14T08:09:08;6.20;;;5.70;;
4646;SDS011;2336;47.822;7.564;2023-12-14T08:11:35;7.37;;;6.70;;
4646;SDS011;2336;47.822;7.564;2023-12-14T08:14:02;7.00;;;6.40;;
4646;SDS011;2336;47.822;7.564;2023-12-14T08:16:29;7.00;;;6.50;;
4646;SDS011;2336;47.822;7.564;2023-12-14T08:18:56;6.73;;;6.23;;
4646;SDS011;2336;47.822;7.564;2023-12-14T08:21:23;5.73;;;5.27;;
4646;SDS011;2336;47.822;7.564;2023-12-14T08:23:51;5.17;;;4.87;;
4646;SDS011;2336;47.822;7.564;2023-12-14T08:26:18;7.37;;;6.43;;
4646;SDS011;2336;47.822;7.564;2023-12-14T08:28:45;9.27;;;5.53;;
4646;SDS011;2336;47.822;7.564;2023-12-14T08:31:12;5.37;;;4.90;;
4646;SDS011;2336;47.822;7.564;2023-12-14T08:33:40;5.30;;;4.90;;
4646;SDS011;2336;47.822;7.564;2023-12-14T08:36:07;5.83;;;5.30;;
4646;SDS011;2336;47.822;7.564;2023-12-14T08:38:34;5.70;;;5.33;;
4646;SDS011;2336;47.822;7.564;2023-12-14T08:41:02;6.03;;;5.63;;
4646;SDS011;2336;47.822;7.564;2023-12-14T08:43:29;5.83;;;5.37;;
4646;SDS011;2336;47.822;7.564;2023-12-14T08:45:56;5.40;;;5.10;;
4646;SDS011;2336;47.822;7.564;2023-12-14T08:48:23;5.83;;;5.43;;
4646;SDS011;2336;47.822;7.564;2023-12-14T08:50:50;4.50;;;4.20;;
4646;SDS011;2336;47.822;7.564;2023-12-14T08:53:19;9.83;;;8.90;;
4646;SDS011;2336;47.822;7.564;2023-12-14T08:55:46;10.93;;;7.77;;
4646;SDS011;2336;47.822;7.564;2023-12-14T08:58:14;5.77;;;5.23;;
4646;SDS011;2336;47.822;7.564;2023-12-14T09:00:41;5.60;;;5.20;;
4646;SDS011;2336;47.822;7.564;2023-12-14T09:03:08;5.27;;;4.97;;
4646;SDS011;2336;47.822;7.564;2023-12-14T09:05:35;5.33;;;4.93;;
4646;SDS011;2336;47.822;7.564;2023-12-14T09:08:02;6.13;;;5.63;;
4646;SDS011;2336;47.822;7.564;2023-12-14T09:10:28;4.90;;;4.60;;
4646;SDS011;2336;47.822;7.564;2023-12-14T09:12:55;4.63;;;4.33;;
4646;SDS011;2336;47.822;7.564;2023-12-14T09:15:23;4.50;;;4.20;;
4646;SDS011;2336;47.822;7.564;2023-12-14T09:17:50;5.30;;;5.00;;
4646;SDS011;2336;47.822;7.564;2023-12-14T09:20:18;4.93;;;4.17;;
4646;SDS011;2336;47.822;7.564;2023-12-14T09:22:45;7.47;;;6.87;;
4646;SDS011;2336;47.822;7.564;2023-12-14T09:25:11;12.93;;;11.63;;
4646;SDS011;2336;47.822;7.564;2023-12-14T09:27:38;21.60;;;17.10;;
4646;SDS011;2336;47.822;7.564;2023-12-14T09:30:05;26.03;;;21.30;;
4646;SDS011;2336;47.822;7.564;2023-12-14T09:32:35;28.80;;;23.43;;
4646;SDS011;2336;47.822;7.564;2023-12-14T09:35:02;33.20;;;27.60;;
4646;SDS011;2336;47.822;7.564;2023-12-14T09:37:29;25.40;;;20.60;;
4646;SDS011;2336;47.822;7.564;2023-12-14T09:39:55;13.30;;;11.90;;
4646;SDS011;2336;47.822;7.564;2023-12-14T09:42:22;7.77;;;6.97;;
4646;SDS011;2336;47.822;7.564;2023-12-14T09:44:49;5.63;;;5.17;;
4646;SDS011;2336;47.822;7.564;2023-12-14T09:47:18;8.20;;;7.40;;
4646;SDS011;2336;47.822;7.564;2023-12-14T09:49:47;6.53;;;5.93;;
4646;SDS011;2336;47.822;7.564;2023-12-14T09:52:15;7.30;;;6.70;;
4646;SDS011;2336;47.822;7.564;2023-12-14T09:54:42;6.70;;;6.20;;
4646;SDS011;2336;47.822;7.564;2023-12-14T09:57:08;14.37;;;8.83;;
4646;SDS011;2336;47.822;7.564;2023-12-14T09:59:35;13.30;;;11.40;;
4646;SDS011;2336;47.822;7.564;2023-12-14T10:02:09;16.37;;;12.50;;
4646;SDS011;2336;47.822;7.564;2023-12-14T10:04:37;7.60;;;6.77;;
4646;SDS011;2336;47.822;7.564;2023-12-14T10:07:05;9.03;;;8.23;;
4646;SDS011;2336;47.822;7.564;2023-12-14T10:09:32;7.40;;;6.77;;
4646;SDS011;2336;47.822;7.564;2023-12-14T10:12:03;4.90;;;4.60;;
4646;SDS011;2336;47.822;7.564;2023-12-14T10:14:31;4.00;;;3.90;;
4646;SDS011;2336;47.822;7.564;2023-12-14T10:16:59;4.37;;;4.17;;
4646;SDS011;2336;47.822;7.564;2023-12-14T10:19:41;9.37;;;8.67;;
4646;SDS011;2336;47.822;7.564;2023-12-14T10:22:10;3.60;;;3.40;;
4646;SDS011;2336;47.822;7.564;2023-12-14T10:24:37;3.00;;;2.67;;
4646;SDS011;2336;47.822;7.564;2023-12-14T10:27:04;2.83;;;2.73;;
4646;SDS011;2336;47.822;7.564;2023-12-14T10:29:33;2.37;;;2.30;;
4646;SDS011;2336;47.822;7.564;2023-12-14T10:32:00;2.53;;;2.50;;
4646;SDS011;2336;47.822;7.564;2023-12-14T10:34:31;2.63;;;2.53;;
4646;SDS011;2336;47.822;7.564;2023-12-14T10:36:58;2.70;;;2.70;;
4646;SDS011;2336;47.822;7.564;2023-12-14T10:39:28;2.40;;;2.33;;
4646;SDS011;2336;47.822;7.564;2023-12-14T10:41:56;2.93;;;2.83;;
4646;SDS011;2336;47.822;7.564;2023-12-14T10:44:25;2.43;;;2.33;;
4646;SDS011;2336;47.822;7.564;2023-12-14T10:46:52;4.00;;;3.30;;
4646;SDS011;2336;47.822;7.564;2023-12-14T10:49:22;5.37;;;2.97;;
4646;SDS011;2336;47.822;7.564;2023-12-14T10:51:49;2.60;;;2.43;;
4646;SDS011;2336;47.822;7.564;2023-12-14T10:54:17;2.63;;;2.53;;
4646;SDS011;2336;47.822;7.564;2023-12-14T10:56:46;2.17;;;2.10;;
4646;SDS011;2336;47.822;7.564;2023-12-14T10:59:14;5.70;;;3.40;;
4646;SDS011;2336;47.822;7.564;2023-12-14T11:01:42;2.90;;;2.77;;
4646;SDS011;2336;47.822;7.564;2023-12-14T11:04:09;3.00;;;2.80;;
4646;SDS011;2336;47.822;7.564;2023-12-14T11:06:40;3.27;;;3.10;;
4646;SDS011;2336;47.822;7.564;2023-12-14T11:09:12;3.17;;;2.97;;
4646;SDS011;2336;47.822;7.564;2023-12-14T11:11:41;3.00;;;2.90;;
4646;SDS011;2336;47.822;7.564;2023-12-14T11:14:11;45.53;;;29.00;;
4646;SDS011;2336;47.822;7.564;2023-12-14T11:16:39;7.63;;;6.77;;
4646;SDS011;2336;47.822;7.564;2023-12-14T11:22:12;3.43;;;3.23;;
4646;SDS011;2336;47.822;7.564;2023-12-14T11:24:52;3.00;;;2.90;;
4646;SDS011;2336;47.822;7.564;2023-12-14T11:27:20;2.40;;;2.30;;
4646;SDS011;2336;47.822;7.564;2023-12-14T11:29:53;2.60;;;2.50;;
4646;SDS011;2336;47.822;7.564;2023-12-14T11:32:20;2.50;;;2.50;;
4646;SDS011;2336;47.822;7.564;2023-12-14T11:34:47;3.83;;;3.63;;
4646;SDS011;2336;47.822;7.564;2023-12-14T11:37:14;4.67;;;4.47;;
4646;SDS011;2336;47.822;7.564;2023-12-14T11:39:41;4.50;;;4.20;;
4646;SDS011;2336;47.822;7.564;2023-12-14T11:42:09;3.80;;;3.60;;
4646;SDS011;2336;47.822;7.564;2023-12-14T11:44:36;3.70;;;3.50;;
4646;SDS011;2336;47.822;7.564;2023-12-14T11:47:04;4.70;;;4.40;;
4646;SDS011;2336;47.822;7.564;2023-12-14T11:49:31;3.60;;;3.40;;
4646;SDS011;2336;47.822;7.564;2023-12-14T11:52:01;3.03;;;2.93;;
4646;SDS011;2336;47.822;7.564;2023-12-14T11:54:29;3.27;;;3.17;;
4646;SDS011;2336;47.822;7.564;2023-12-14T11:56:56;3.63;;;3.40;;
4646;SDS011;2336;47.822;7.564;2023-12-14T11:59:23;20.43;;;13.03;;
4646;SDS011;2336;47.822;7.564;2023-12-14T12:01:53;13.70;;;7.87;;
4646;SDS011;2336;47.822;7.564;2023-12-14T12:04:22;4.83;;;4.53;;
4646;SDS011;2336;47.822;7.564;2023-12-14T12:06:58;4.10;;;3.90;;
4646;SDS011;2336;47.822;7.564;2023-12-14T12:09:33;19.00;;;12.23;;
4646;SDS011;2336;47.822;7.564;2023-12-14T12:12:06;7.53;;;6.73;;
4646;SDS011;2336;47.822;7.564;2023-12-14T12:14:34;14.50;;;10.53;;
4646;SDS011;2336;47.822;7.564;2023-12-14T12:17:01;4.90;;;4.50;;
4646;SDS011;2336;47.822;7.564;2023-12-14T12:19:31;4.67;;;4.37;;
4646;SDS011;2336;47.822;7.564;2023-12-14T12:21:59;4.40;;;4.17;;
4646;SDS011;2336;47.822;7.564;2023-12-14T12:24:26;3.33;;;3.13;;
4646;SDS011;2336;47.822;7.564;2023-12-14T12:26:53;2.60;;;2.50;;
4646;SDS011;2336;47.822;7.564;2023-12-14T12:29:20;3.10;;;2.90;;
4646;SDS011;2336;47.822;7.564;2023-12-14T12:31:46;2.37;;;2.27;;
4646;SDS011;2336;47.822;7.564;2023-12-14T12:34:13;3.57;;;2.97;;
4646;SDS011;2336;47.822;7.564;2023-12-14T12:36:41;3.10;;;2.90;;
4646;SDS011;2336;47.822;7.564;2023-12-14T12:39:08;4.30;;;2.57;;
4646;SDS011;2336;47.822;7.564;2023-12-14T12:41:35;3.37;;;3.07;;
4646;SDS011;2336;47.822;7.564;2023-12-14T12:44:03;2.83;;;2.73;;
4646;SDS011;2336;47.822;7.564;2023-12-14T12:46:32;3.60;;;3.40;;
4646;SDS011;2336;47.822;7.564;2023-12-14T12:49:00;3.40;;;3.20;;
4646;SDS011;2336;47.822;7.564;2023-12-14T12:51:27;3.07;;;2.97;;
4646;SDS011;2336;47.822;7.564;2023-12-14T12:53:56;3.97;;;3.77;;
4646;SDS011;2336;47.822;7.564;2023-12-14T12:56:25;3.60;;;3.50;;
4646;SDS011;2336;47.822;7.564;2023-12-14T12:58:52;2.70;;;2.60;;
4646;SDS011;2336;47.822;7.564;2023-12-14T13:01:20;2.80;;;2.60;;
4646;SDS011;2336;47.822;7.564;2023-12-14T13:03:51;3.20;;;3.00;;
4646;SDS011;2336;47.822;7.564;2023-12-14T13:06:19;3.50;;;3.30;;
4646;SDS011;2336;47.822;7.564;2023-12-14T13:08:47;4.40;;;4.10;;
4646;SDS011;2336;47.822;7.564;2023-12-14T13:11:15;4.83;;;4.47;;
4646;SDS011;2336;47.822;7.564;2023-12-14T13:13:42;3.20;;;3.10;;
4646;SDS011;2336;47.822;7.564;2023-12-14T13:16:09;2.60;;;2.50;;
4646;SDS011;2336;47.822;7.564;2023-12-14T13:18:38;2.70;;;2.60;;
4646;SDS011;2336;47.822;7.564;2023-12-14T13:21:05;13.60;;;8.90;;
4646;SDS011;2336;47.822;7.564;2023-12-14T13:23:33;5.20;;;4.80;;
4646;SDS011;2336;47.822;7.564;2023-12-14T13:26:01;4.03;;;3.70;;
4646;SDS011;2336;47.822;7.564;2023-12-14T13:28:30;4.97;;;3.40;;
4646;SDS011;2336;47.822;7.564;2023-12-14T13:30:58;3.93;;;3.63;;
4646;SDS011;2336;47.822;7.564;2023-12-14T13:33:25;2.83;;;2.60;;
4646;SDS011;2336;47.822;7.564;2023-12-14T13:35:52;2.50;;;2.40;;
4646;SDS011;2336;47.822;7.564;2023-12-14T13:38:18;2.53;;;2.43;;
4646;SDS011;2336;47.822;7.564;2023-12-14T13:40:45;3.33;;;3.17;;
4646;SDS011;2336;47.822;7.564;2023-12-14T13:43:12;3.00;;;2.80;;
4646;SDS011;2336;47.822;7.564;2023-12-14T13:45:40;2.83;;;2.63;;
4646;SDS011;2336;47.822;7.564;2023-12-14T13:48:08;11.17;;;2.93;;
4646;SDS011;2336;47.822;7.564;2023-12-14T13:50:34;6.57;;;5.20;;
4646;SDS011;2336;47.822;7.564;2023-12-14T13:53:02;3.23;;;2.90;;
4646;SDS011;2336;47.822;7.564;2023-12-14T13:55:29;2.47;;;2.37;;
4646;SDS011;2336;47.822;7.564;2023-12-14T13:57:57;3.27;;;2.40;;
4646;SDS011;2336;47.822;7.564;2023-12-14T14:00:25;2.63;;;2.53;;
4646;SDS011;2336;47.822;7.564;2023-12-14T14:02:54;3.70;;;3.40;;
4646;SDS011;2336;47.822;7.564;2023-12-14T14:05:21;3.73;;;3.47;;
4646;SDS011;2336;47.822;7.564;2023-12-14T14:07:50;2.80;;;2.70;;
4646;SDS011;2336;47.822;7.564;2023-12-14T14:10:17;7.30;;;3.70;;
4646;SDS011;2336;47.822;7.564;2023-12-14T14:12:44;3.13;;;2.93;;
4646;SDS011;2336;47.822;7.564;2023-12-14T14:15:11;2.37;;;2.27;;
4646;SDS011;2336;47.822;7.564;2023-12-14T14:17:37;2.33;;;2.23;;
4646;SDS011;2336;47.822;7.564;2023-12-14T14:20:06;2.67;;;2.67;;
4646;SDS011;2336;47.822;7.564;2023-12-14T14:22:34;2.53;;;2.50;;
4646;SDS011;2336;47.822;7.564;2023-12-14T14:25:01;3.17;;;3.07;;
4646;SDS011;2336;47.822;7.564;2023-12-14T14:27:28;2.60;;;2.50;;
4646;SDS011;2336;47.822;7.564;2023-12-14T14:29:56;2.50;;;2.40;;
4646;SDS011;2336;47.822;7.564;2023-12-14T14:32:22;3.50;;;3.40;;
4646;SDS011;2336;47.822;7.564;2023-12-14T14:34:49;3.17;;;2.97;;
4646;SDS011;2336;47.822;7.564;2023-12-14T14:37:17;3.30;;;3.20;;
4646;SDS011;2336;47.822;7.564;2023-12-14T14:39:44;3.90;;;3.70;;
4646;SDS011;2336;47.822;7.564;2023-12-14T14:42:11;4.33;;;4.10;;
4646;SDS011;2336;47.822;7.564;2023-12-14T14:44:38;4.60;;;4.17;;
4646;SDS011;2336;47.822;7.564;2023-12-14T14:47:05;4.40;;;4.20;;
4646;SDS011;2336;47.822;7.564;2023-12-14T14:49:32;4.80;;;4.50;;
4646;SDS011;2336;47.822;7.564;2023-12-14T14:51:59;6.57;;;6.07;;
4646;SDS011;2336;47.822;7.564;2023-12-14T14:54:27;6.70;;;6.10;;
4646;SDS011;2336;47.822;7.564;2023-12-14T14:56:54;8.57;;;7.77;;
4646;SDS011;2336;47.822;7.564;2023-12-14T14:59:20;8.83;;;8.10;;
4646;SDS011;2336;47.822;7.564;2023-12-14T15:01:47;13.83;;;12.57;;
4646;SDS011;2336;47.822;7.564;2023-12-14T15:04:15;38.40;;;33.40;;
4646;SDS011;2336;47.822;7.564;2023-12-14T15:06:43;17.03;;;15.33;;
4646;SDS011;2336;47.822;7.564;2023-12-14T15:09:10;18.90;;;16.90;;
4646;SDS011;2336;47.822;7.564;2023-12-14T15:11:39;9.90;;;9.10;;
4646;SDS011;2336;47.822;7.564;2023-12-14T15:14:07;9.50;;;8.60;;
4646;SDS011;2336;47.822;7.564;2023-12-14T15:16:34;8.30;;;7.60;;